Terminal Aerodrome Forecast
Issued by NWS Blacksburg, VA

Home | Current Version | Previous Version | Text Only | Print | Product List | Glossary On
Versions: 1 2 3 4 5 6 7 8 9 10 11 12 13 14 15 16 17 18 19 20 21 22 23 24 25
000
FTUS41 KRNK 241135
TAFBLF
TAF
KBLF 241135Z 2412/2512 10012G27KT 6SM -RA BR OVC013
      TEMPO 2412/2414 2SM -RA BR OVC007
     FM241400 11010G20KT 4SM -RA OVC003
     FM241600 10010KT P6SM BKN010
     FM241900 10010KT P6SM BKN008
      TEMPO 2419/2421 4SM -RA OVC003
     FM242300 34004KT P6SM OVC008=

USA.gov is the U.S. government's official web portal to all federal, state and local government web resources and services.